.
WxDataArchive / Data Records for 2010-01-25
2010-01-24 January 2010 2010-01-26

Data Records for Monday, 25 January 2010

Time	Temp	Chill	HIndex	Humid	Dewpt	 Wind 	HiWind	WindDir	Rain 	Barom 
-----	----	-----	------	-----	-----	------	------	-------	-----	----- 
00:00	37.9	37.9	37.9	90	35.2	1	3	270	0.00	29.343 
00:05	37.9	37.9	37.9	90	35.2	1	3	292	0.00	29.343 
00:10	37.9	37.9	37.9	90	35.2	1	3	270	0.00	29.343 
00:15	37.8	37.8	37.8	90	35.1	1	3	270	0.00	29.339 
00:20	37.8	37.8	37.8	90	35.1	1	4	248	0.00	29.339 
00:25	37.8	37.8	37.8	90	35.1	1	4	248	0.00	29.339 
00:30	37.8	37.8	37.8	90	35.1	1	2	248	0.00	29.338 
00:35	37.8	37.8	37.8	91	35.4	0	2	248	0.00	29.338 
00:40	37.6	37.6	37.6	91	35.2	0	3	248	0.00	29.338 
00:45	37.6	37.6	37.6	91	35.2	1	3	248	0.00	29.327 
00:50	37.6	37.6	37.6	91	35.2	1	3	248	0.00	29.327 
00:55	37.6	37.6	37.6	91	35.2	1	3	248	0.00	29.327 
01:00	37.6	37.6	37.6	91	35.2	1	3	248	0.00	29.323 
01:05	37.6	37.6	37.6	91	35.2	0	2	248	0.00	29.323 
01:10	37.5	37.5	37.5	91	35.1	2	5	248	0.00	29.323 
01:15	37.5	37.5	37.5	91	35.1	2	4	270	0.00	29.321 
01:20	37.5	37.5	37.5	91	35.1	1	3	248	0.00	29.321 
01:25	37.5	37.5	37.5	91	35.1	1	5	248	0.00	29.321 
01:30	37.3	37.3	37.3	91	34.9	1	4	270	0.00	29.323 
01:35	37.3	37.3	37.3	92	35.2	1	5	248	0.00	29.323 
01:40	37.2	37.2	37.2	92	35.1	2	6	248	0.00	29.323 
01:45	37.2	37.2	37.2	92	35.1	1	3	248	0.00	29.320 
01:50	37.0	37.0	37.0	92	34.9	1	5	248	0.00	29.320 
01:55	37.0	37.0	37.0	92	34.9	1	3	225	0.00	29.320 
02:00	36.9	36.9	36.9	92	34.8	1	4	248	0.00	29.310 
02:05	36.9	36.9	36.9	92	34.8	1	4	248	0.00	29.310 
02:10	36.8	36.8	36.8	92	34.7	1	3	248	0.00	29.310 
02:15	36.6	36.6	36.6	92	34.5	1	3	248	0.00	29.314 
02:20	36.5	36.5	36.5	92	34.4	2	5	248	0.00	29.314 
02:25	36.5	36.5	36.5	92	34.4	2	5	248	0.00	29.314 
02:30	36.3	36.3	36.3	92	34.2	2	5	248	0.00	29.321 
02:35	36.3	36.3	36.3	92	34.2	1	4	248	0.00	29.321 
02:40	36.2	36.2	36.2	92	34.1	2	5	248	0.00	29.321 
02:45	36.2	36.2	36.2	93	34.4	2	5	248	0.00	29.323 
02:50	36.2	36.2	36.2	93	34.4	1	4	248	0.00	29.323 
02:55	36.0	36.0	36.0	93	34.2	1	4	248	0.00	29.323 
03:00	36.0	36.0	36.0	93	34.2	2	6	248	0.00	29.323 
03:05	35.9	35.9	35.9	93	34.1	3	7	248	0.00	29.323 
03:10	35.9	35.9	35.9	93	34.1	2	5	248	0.00	29.323 
03:15	35.9	35.9	35.9	93	34.1	1	3	248	0.00	29.323 
03:20	35.9	35.9	35.9	93	34.1	1	2	248	0.00	29.323 
03:25	35.8	35.8	35.8	93	34.0	2	7	248	0.00	29.323 
03:30	35.6	35.6	35.6	93	33.8	2	5	248	0.00	29.321 
03:35	35.5	35.5	35.5	92	33.4	3	10	248	0.00	29.321 
03:40	35.3	35.3	35.3	92	33.2	2	7	248	0.00	29.321 
03:45	35.2	35.2	35.2	92	33.1	1	5	292	0.00	29.325 
03:50	35.0	35.0	35.0	92	32.9	3	8	248	0.00	29.325 
03:55	35.0	35.0	35.0	91	32.6	3	7	248	0.00	29.325 
04:00	34.9	34.9	34.9	91	32.5	2	5	270	0.00	29.326 
04:05	34.9	34.9	34.9	90	32.3	3	10	248	0.00	29.326 
04:10	34.3	30.7	34.3	90	31.7	4	10	270	0.00	29.326 
04:15	33.7	29.1	33.7	90	31.1	5	12	270	0.00	29.335 
04:20	33.1	29.3	33.1	90	30.5	4	12	248	0.00	29.335 
04:25	32.8	32.8	32.8	90	30.2	3	11	248	0.00	29.335 
04:30	32.5	28.7	32.5	89	29.6	4	12	270	0.00	29.332 
04:35	32.4	28.5	32.4	89	29.5	4	11	248	0.00	29.332 
04:40	32.2	32.2	32.2	89	29.3	3	7	270	0.00	29.332 
04:45	32.2	32.2	32.2	89	29.3	3	7	248	0.00	29.335 
04:50	32.2	32.2	32.2	89	29.3	3	6	248	0.00	29.335 
04:55	32.1	32.1	32.1	88	29.0	3	7	270	0.00	29.335 
05:00	31.9	31.9	31.9	88	28.8	3	10	270	0.00	29.335 
05:05	31.9	31.9	31.9	88	28.8	3	11	270	0.00	29.335 
05:10	31.8	31.8	31.8	88	28.7	3	10	270	0.00	29.335 
05:15	31.8	31.8	31.8	88	28.7	2	6	248	0.00	29.337 
05:20	31.6	27.6	31.6	87	28.2	4	11	248	0.00	29.337 
05:25	31.5	31.5	31.5	88	28.4	2	5	292	0.00	29.337 
05:30	31.3	31.3	31.3	88	28.2	3	9	270	0.00	29.336 
05:35	31.2	31.2	31.2	88	28.1	3	7	248	0.00	29.336 
05:40	31.2	31.2	31.2	88	28.1	3	9	248	0.00	29.336 
05:45	31.2	31.2	31.2	88	28.1	2	4	248	0.00	29.336 
05:50	31.2	31.2	31.2	88	28.1	2	9	248	0.00	29.336 
05:55	31.0	26.9	31.0	87	27.6	4	8	270	0.00	29.336 
06:00	31.0	31.0	31.0	86	27.3	3	9	270	0.00	29.336 
06:05	31.0	31.0	31.0	85	27.0	2	5	270	0.00	29.336 
06:10	31.0	31.0	31.0	85	27.0	3	7	248	0.00	29.336 
06:15	31.0	31.0	31.0	84	26.7	2	4	270	0.00	29.339 
06:20	31.0	31.0	31.0	84	26.7	1	3	248	0.00	29.339 
06:25	31.0	31.0	31.0	84	26.7	2	6	248	0.00	29.339 
06:30	30.9	30.9	30.9	83	26.4	2	5	270	0.00	29.346 
06:35	30.9	30.9	30.9	83	26.4	2	6	270	0.00	29.346 
06:40	30.9	30.9	30.9	83	26.4	3	5	270	0.00	29.346 
06:45	30.9	30.9	30.9	83	26.4	3	12	248	0.00	29.347 
06:50	30.9	26.8	30.9	81	25.8	4	11	270	0.00	29.347 
06:55	30.7	25.5	30.7	79	25.0	5	12	270	0.00	29.347 
07:00	30.7	30.7	30.7	79	25.0	2	4	270	0.00	29.348 
07:05	30.7	30.7	30.7	78	24.7	3	5	248	0.00	29.348 
07:10	30.7	30.7	30.7	78	24.7	3	10	270	0.00	29.348 
07:15	30.6	26.5	30.6	77	24.3	4	13	270	0.00	29.355 
07:20	30.6	30.6	30.6	76	24.0	3	7	248	0.00	29.355 
07:25	30.6	26.5	30.6	75	23.6	4	10	248	0.00	29.355 
07:30	30.7	30.7	30.7	75	23.7	3	12	270	0.00	29.364 
07:35	30.7	30.7	30.7	75	23.7	3	10	270	0.00	29.364 
07:40	30.9	30.9	30.9	75	23.9	2	5	270	0.00	29.364 
07:45	30.9	30.9	30.9	75	23.9	3	9	270	0.00	29.366 
07:50	30.9	30.9	30.9	76	24.2	3	10	248	0.00	29.366 
07:55	30.9	30.9	30.9	76	24.2	3	10	270	0.00	29.366 
08:00	30.9	30.9	30.9	76	24.2	3	9	270	0.00	29.369 
08:05	31.0	25.9	31.0	76	24.3	5	13	270	0.00	29.369 
08:10	30.9	25.8	30.9	76	24.2	5	10	270	0.00	29.369 
08:15	30.9	30.9	30.9	76	24.2	3	8	248	0.00	29.367 
08:20	30.9	30.9	30.9	77	24.6	3	9	248	0.00	29.367 
08:25	30.9	30.9	30.9	77	24.6	3	10	248	0.00	29.367 
08:30	31.0	31.0	31.0	77	24.7	3	7	248	0.00	29.366 
08:35	31.0	26.9	31.0	77	24.7	4	12	248	0.00	29.366 
08:40	31.0	31.0	31.0	78	25.0	3	11	248	0.00	29.366 
08:45	31.0	31.0	31.0	78	25.0	2	4	248	0.00	29.367 
08:50	31.0	26.9	31.0	78	25.0	4	9	248	0.00	29.367 
08:55	31.0	26.9	31.0	78	25.0	4	12	248	0.00	29.367 
09:00	31.2	27.2	31.2	77	24.8	4	10	248	0.00	29.368 
09:05	31.2	27.2	31.2	76	24.5	4	10	248	0.00	29.368 
09:10	31.2	31.2	31.2	76	24.5	3	10	248	0.00	29.368 
09:15	31.2	31.2	31.2	76	24.5	3	9	248	0.00	29.373 
09:20	31.2	31.2	31.2	75	24.2	3	8	248	0.00	29.373 
09:25	31.3	31.3	31.3	74	24.0	2	5	270	0.00	29.373 
09:30	31.3	31.3	31.3	72	23.3	3	9	248	0.00	29.371 
09:35	31.5	31.5	31.5	71	23.2	3	6	270	0.00	29.371 
09:40	31.5	31.5	31.5	70	22.9	3	6	248	0.00	29.371 
09:45	31.6	31.6	31.6	69	22.6	3	7	248	0.00	29.371 
09:50	31.8	31.8	31.8	69	22.8	2	6	270	0.00	29.371 
09:55	31.8	27.8	31.8	68	22.5	4	7	248	0.00	29.371 
10:00	31.9	31.9	31.9	69	22.9	2	5	248	0.00	29.370 
10:05	32.2	32.2	32.2	69	23.2	2	7	248	0.00	29.370 
10:10	32.4	32.4	32.4	68	23.0	3	10	248	0.00	29.370 
10:15	32.4	32.4	32.4	68	23.0	3	9	248	0.00	29.376 
10:20	32.5	32.5	32.5	68	23.1	2	7	248	0.00	29.376 
10:25	32.5	32.5	32.5	68	23.1	2	6	248	0.00	29.376 
10:30	32.5	32.5	32.5	68	23.1	3	6	248	0.00	29.374 
10:35	32.7	32.7	32.7	68	23.3	3	9	270	0.00	29.374 
10:40	32.8	32.8	32.8	69	23.8	2	5	248	0.00	29.374 
10:45	32.8	32.8	32.8	68	23.4	3	10	248	0.00	29.376 
10:50	32.9	32.9	32.9	69	23.9	3	9	248	0.00	29.376 
10:55	32.9	32.9	32.9	68	23.5	3	10	248	0.00	29.376 
11:00	32.8	29.0	32.8	68	23.4	4	11	248	0.00	29.380 
11:05	32.8	28.0	32.8	69	23.8	5	13	248	0.00	29.380 
11:10	32.7	32.7	32.7	70	24.0	3	11	248	0.00	29.380 
11:15	32.8	32.8	32.8	70	24.1	3	6	270	0.00	29.380 
11:20	32.8	29.0	32.8	71	24.4	4	11	248	0.00	29.380 
11:25	32.7	32.7	32.7	72	24.7	2	10	248	0.00	29.380 
11:30	32.7	32.7	32.7	73	25.0	3	9	248	0.00	29.382 
11:35	32.5	32.5	32.5	74	25.2	3	13	248	0.00	29.382 
11:40	32.5	32.5	32.5	75	25.5	3	9	248	0.00	29.382 
11:45	32.4	28.5	32.4	75	25.4	4	12	248	0.00	29.374 
11:50	32.4	32.4	32.4	77	26.0	3	10	248	0.00	29.374 
11:55	32.5	32.5	32.5	77	26.1	2	6	270	0.00	29.374 
12:00	32.4	28.5	32.4	78	26.3	4	12	248	0.00	29.378 
12:05	32.2	32.2	32.2	79	26.4	3	7	248	0.00	29.378 
12:10	32.2	28.3	32.2	80	26.7	4	12	248	0.00	29.378 
12:15	32.2	32.2	32.2	80	26.7	3	6	248	0.00	29.374 
12:20	32.4	32.4	32.4	81	27.2	3	9	248	0.00	29.374 
12:25	32.2	32.2	32.2	81	27.0	2	6	248	0.00	29.374 
12:30	32.4	32.4	32.4	82	27.5	3	10	248	0.00	29.370 
12:35	32.4	32.4	32.4	82	27.5	3	10	248	0.00	29.370 
12:40	32.2	32.2	32.2	82	27.3	3	10	248	0.00	29.370 
12:45	32.1	32.1	32.1	83	27.5	3	7	248	0.00	29.366 
12:50	32.1	28.2	32.1	83	27.5	4	7	248	0.00	29.366 
12:55	32.1	32.1	32.1	84	27.8	2	7	248	0.00	29.366 
13:00	32.2	32.2	32.2	84	27.9	2	6	248	0.00	29.358 
13:05	32.4	28.5	32.4	83	27.8	4	9	248	0.00	29.358 
13:10	32.4	32.4	32.4	82	27.5	3	8	248	0.00	29.358 
13:15	32.5	32.5	32.5	82	27.6	3	13	248	0.00	29.355 
13:20	32.8	32.8	32.8	82	27.9	2	10	248	0.00	29.355 
13:25	33.1	33.1	33.1	81	27.9	2	6	248	0.00	29.355 
13:30	33.2	33.2	33.2	80	27.7	3	7	270	0.00	29.354 
13:35	33.2	29.5	33.2	77	26.8	4	9	248	0.00	29.354 
13:40	33.1	29.3	33.1	77	26.7	4	11	270	0.01	29.354 
13:45	32.9	32.9	32.9	79	27.1	3	10	248	0.00	29.354 
13:50	32.9	32.9	32.9	81	27.7	2	6	248	0.00	29.354 
13:55	32.5	32.5	32.5	81	27.3	2	6	248	0.00	29.354 
14:00	31.9	31.9	31.9	83	27.3	3	10	270	0.00	29.355 
14:05	31.6	31.6	31.6	85	27.6	3	6	248	0.00	29.355 
14:10	31.6	27.6	31.6	85	27.6	4	10	248	0.00	29.355 
14:15	31.8	31.8	31.8	84	27.5	3	10	248	0.00	29.356 
14:20	31.9	31.9	31.9	84	27.6	3	7	248	0.00	29.356 
14:25	31.9	31.9	31.9	83	27.3	3	8	248	0.00	29.356 
14:30	31.5	27.5	31.5	83	26.9	4	10	270	0.00	29.359 
14:35	31.0	31.0	31.0	85	27.0	2	6	248	0.00	29.359 
14:40	31.0	31.0	31.0	87	27.6	3	14	248	0.00	29.359 
14:45	31.0	31.0	31.0	86	27.3	2	5	248	0.00	29.363 
14:50	31.2	31.2	31.2	84	26.9	2	7	248	0.00	29.363 
14:55	31.3	31.3	31.3	82	26.5	3	15	248	0.00	29.363 
15:00	31.5	31.5	31.5	80	26.1	3	9	248	0.00	29.367 
15:05	31.8	27.8	31.8	79	26.0	4	9	270	0.00	29.367 
15:10	31.9	28.0	31.9	77	25.5	4	10	248	0.00	29.367 
15:15	32.1	28.2	32.1	77	25.7	4	11	248	0.00	29.372 
15:20	32.2	32.2	32.2	76	25.5	3	9	248	0.00	29.372 
15:25	32.4	32.4	32.4	75	25.4	3	10	248	0.00	29.372 
15:30	32.5	32.5	32.5	74	25.2	2	7	248	0.00	29.374 
15:35	32.7	32.7	32.7	74	25.3	2	6	248	0.00	29.374 
15:40	32.7	32.7	32.7	73	25.0	3	10	248	0.00	29.374 
15:45	32.7	32.7	32.7	73	25.0	3	9	248	0.00	29.377 
15:50	32.5	28.7	32.5	73	24.8	4	11	248	0.00	29.377 
15:55	32.5	32.5	32.5	74	25.2	2	6	248	0.00	29.377 
16:00	32.5	32.5	32.5	75	25.5	2	6	248	0.00	29.386 
16:05	32.7	32.7	32.7	76	26.0	2	7	270	0.00	29.386 
16:10	32.7	32.7	32.7	76	26.0	2	6	248	0.00	29.386 
16:15	32.8	32.8	32.8	76	26.1	2	6	270	0.00	29.389 
16:20	32.8	32.8	32.8	74	25.4	3	8	248	0.00	29.389 
16:25	32.9	32.9	32.9	74	25.5	2	9	248	0.00	29.389 
16:30	33.1	33.1	33.1	73	25.4	3	9	248	0.00	29.394 
16:35	33.1	33.1	33.1	72	25.1	3	10	248	0.00	29.394 
16:40	33.2	33.2	33.2	72	25.2	2	6	248	0.00	29.394 
16:45	33.2	33.2	33.2	71	24.8	3	7	248	0.00	29.395 
16:50	33.2	33.2	33.2	71	24.8	3	7	248	0.00	29.395 
16:55	33.2	33.2	33.2	70	24.5	3	6	248	0.00	29.395 
17:00	33.2	33.2	33.2	71	24.8	3	7	248	0.00	29.401 
17:05	33.2	33.2	33.2	73	25.5	2	8	248	0.00	29.401 
17:10	33.1	33.1	33.1	74	25.7	3	10	248	0.00	29.401 
17:15	32.8	32.8	32.8	76	26.1	3	11	248	0.00	29.413 
17:20	32.2	27.3	32.2	79	26.4	5	11	248	0.00	29.413 
17:25	31.5	31.5	31.5	80	26.1	3	7	248	0.00	29.413 
17:30	30.9	25.8	30.9	81	25.8	5	12	270	0.00	29.427 
17:35	30.6	26.5	30.6	81	25.5	4	10	248	0.00	29.427 
17:40	30.4	26.2	30.4	81	25.3	4	12	248	0.00	29.427 
17:45	30.4	26.2	30.4	80	25.0	4	11	248	0.00	29.433 
17:50	30.4	30.4	30.4	80	25.0	3	9	248	0.00	29.433 
17:55	30.4	26.2	30.4	80	25.0	4	13	270	0.00	29.433 
18:00	30.4	30.4	30.4	80	25.0	3	7	248	0.00	29.440 
18:05	30.4	26.2	30.4	80	25.0	4	11	248	0.00	29.440 
18:10	30.6	26.5	30.6	80	25.2	4	9	248	0.00	29.440 
18:15	30.6	30.6	30.6	80	25.2	3	9	248	0.00	29.443 
18:20	30.6	26.5	30.6	80	25.2	4	10	248	0.00	29.443 
18:25	30.7	25.5	30.7	80	25.3	5	11	248	0.00	29.443 
18:30	30.7	26.6	30.7	79	25.0	4	11	270	0.00	29.456 
18:35	30.7	30.7	30.7	79	25.0	3	7	270	0.00	29.456 
18:40	30.6	30.6	30.6	78	24.6	3	9	248	0.00	29.456 
18:45	30.4	26.2	30.4	78	24.4	4	12	270	0.00	29.459 
18:50	30.3	26.1	30.3	79	24.6	4	13	270	0.00	29.459 
18:55	30.3	26.1	30.3	79	24.6	4	9	248	0.00	29.459 
19:00	30.1	24.8	30.1	80	24.7	5	11	248	0.00	29.467 
19:05	30.1	25.9	30.1	80	24.7	4	11	248	0.00	29.467 
19:10	30.0	25.8	30.0	81	24.9	4	15	248	0.00	29.467 
19:15	30.0	25.8	30.0	80	24.6	4	10	248	0.00	29.463 
19:20	30.1	30.1	30.1	81	25.0	3	9	248	0.00	29.463 
19:25	30.1	25.9	30.1	81	25.0	4	15	248	0.00	29.463 
19:30	30.1	30.1	30.1	81	25.0	3	10	248	0.00	29.471 
19:35	30.1	25.9	30.1	81	25.0	4	10	270	0.00	29.471 
19:40	30.1	24.8	30.1	81	25.0	5	12	270	0.00	29.471 
19:45	30.1	25.9	30.1	81	25.0	4	13	248	0.00	29.474 
19:50	30.1	24.8	30.1	80	24.7	5	13	248	0.00	29.474 
19:55	30.1	24.0	30.1	79	24.4	6	15	270	0.00	29.474 
20:00	30.1	25.9	30.1	79	24.4	4	10	248	0.00	29.476 
20:05	30.1	30.1	30.1	79	24.4	3	10	248	0.00	29.476 
20:10	30.1	25.9	30.1	79	24.4	4	12	248	0.00	29.476 
20:15	30.1	25.9	30.1	79	24.4	4	16	248	0.00	29.482 
20:20	30.0	24.7	30.0	80	24.6	5	14	248	0.00	29.482 
20:25	29.8	23.6	29.8	80	24.4	6	16	270	0.00	29.482 
20:30	29.7	24.4	29.7	79	24.0	5	12	248	0.00	29.483 
20:35	29.7	24.4	29.7	79	24.0	5	12	248	0.00	29.483 
20:40	29.5	22.5	29.5	80	24.1	7	14	270	0.00	29.483 
20:45	29.3	23.0	29.3	80	23.9	6	16	270	0.00	29.490 
20:50	29.1	23.7	29.1	81	24.0	5	16	248	0.00	29.490 
20:55	28.8	24.4	28.8	82	24.0	4	11	248	0.00	29.490 
21:00	28.5	23.0	28.5	82	23.7	5	11	248	0.00	29.498 
21:05	28.2	23.7	28.2	82	23.4	4	11	270	0.00	29.498 
21:10	28.1	23.6	28.1	81	23.0	4	11	248	0.00	29.498 
21:15	27.9	22.3	27.9	81	22.8	5	12	248	0.00	29.498 
21:20	27.9	21.3	27.9	81	22.8	6	15	270	0.00	29.498 
21:25	27.8	21.2	27.8	81	22.7	6	17	270	0.00	29.498 
21:30	27.8	22.1	27.8	80	22.4	5	10	270	0.00	29.506 
21:35	27.8	22.1	27.8	79	22.2	5	12	270	0.00	29.506 
21:40	27.6	21.9	27.6	80	22.3	5	12	248	0.00	29.506 
21:45	27.6	21.0	27.6	79	22.0	6	15	270	0.00	29.507 
21:50	27.5	22.9	27.5	79	21.9	4	7	270	0.00	29.507 
21:55	27.5	21.8	27.5	79	21.9	5	17	270	0.00	29.507 
22:00	27.3	21.6	27.3	79	21.7	5	11	270	0.00	29.512 
22:05	27.2	22.5	27.2	80	21.9	4	12	270	0.00	29.512 
22:10	26.9	22.2	26.9	81	21.9	4	10	248	0.00	29.512 
22:15	26.7	26.7	26.7	82	22.0	3	8	248	0.00	29.521 
22:20	26.4	19.6	26.4	83	22.0	6	18	270	0.00	29.521 
22:25	26.4	20.5	26.4	83	22.0	5	13	270	0.00	29.521 
22:30	26.4	21.6	26.4	83	22.0	4	12	270	0.00	29.525 
22:35	26.3	21.5	26.3	84	22.1	4	10	248	0.00	29.525 
22:40	26.1	21.3	26.1	84	21.9	4	9	270	0.00	29.525 
22:45	26.0	19.1	26.0	83	21.6	6	17	270	0.00	29.531 
22:50	26.0	20.0	26.0	83	21.6	5	14	270	0.00	29.531 
22:55	26.0	20.0	26.0	83	21.6	5	13	248	0.00	29.531 
23:00	25.8	19.8	25.8	83	21.4	5	11	270	0.00	29.535 
23:05	25.8	25.8	25.8	83	21.4	3	9	270	0.00	29.535 
23:10	25.8	20.9	25.8	84	21.6	4	9	248	0.00	29.535 
23:15	25.7	19.7	25.7	84	21.5	5	14	270	0.00	29.539 
23:20	25.7	18.7	25.7	83	21.3	6	13	270	0.00	29.539 
23:25	25.7	20.8	25.7	82	21.0	4	9	270	0.00	29.539 
23:30	25.8	25.8	25.8	82	21.1	3	8	248	0.00	29.540 
23:35	25.8	25.8	25.8	82	21.1	3	7	248	0.00	29.540 
23:40	25.8	19.8	25.8	82	21.1	5	13	270	0.00	29.540 
23:45	25.7	20.8	25.7	83	21.3	4	11	270	0.00	29.542 
23:50	25.6	19.6	25.6	83	21.2	5	13	270	0.00	29.542 
23:55	25.4	19.3	25.4	82	20.7	5	15	248	0.00	29.542 

CoCoRaHS
IN-AL-39
A2 Web Hosting
Creative Commons License
GoDaddy
search engine by freefind advanced

loaded 2018-11-15 18:51:12 • last modified 2010-11-18 10:43:29
Privacy PolicyDisclaimer
• wx.awcolley.com is powered by PmWiki v.2002016 •
• all content (unless otherwise noted) © 2018 A W Colley